NCAR-RAP Real-Time Weather Data

Output produced by METARs form (23 February 2020  02:36 UTC)
found at http://weather.rap.ucar.edu/surface/
 
KJFK 230151Z 25010KT 10SM CLR 06/M08 A3022 RMK AO2 SLP233 T00561078
KJFK 230051Z 25009KT 10SM FEW250 06/M07 A3021 RMK AO2 SLP229 T00611072
KJFK 222351Z 24012KT 10SM CLR 07/M07 A3020 RMK AO2 SLP226 T00671067 10100 20061 53008
KJFK 222251Z 24011KT 10SM CLR 07/M07 A3017 RMK AO2 SLP216 T00671072
KJFK 222151Z 24011KT 10SM CLR 09/M11 A3016 RMK AO2 SLP214 T00941111
KJFK 222051Z 25013KT 10SM CLR 10/M12 A3017 RMK AO2 SLP217 T01001117 56018 $
KJFK 221951Z 27012G21KT 10SM CLR 10/M13 A3018 RMK AO2 SLP218 T01001128 $
KJFK 221851Z 23015KT 10SM CLR 09/M09 A3019 RMK AO2 SLP223 T00891094 $
KJFK 221751Z 23012KT 10SM CLR 07/M09 A3023 RMK AO2 SLP235 T00671094 10067 21006 58025 $
KJFK 221651Z 25014KT 10SM CLR 06/M12 A3027 RMK AO2 SLP249 T00561117 $
KJFK 221551Z 26013KT 10SM FEW250 04/M12 A3029 RMK AO2 SLP255 T00441117 $
KJFK 221451Z 26013KT 10SM FEW250 04/M12 A3030 RMK AO2 SLP260 T00391117 50000 $
KJFK 221351Z 27014KT 10SM FEW250 02/M11 A3032 RMK AO2 SLP266 T00221111 $
KJFK 221251Z 26013KT 10SM CLR 00/M11 A3031 RMK AO2 SLP264 T00001111 $
KJFK 221151Z 27014KT 10SM CLR M01/M11 A3030 RMK AO2 SLP260 T10061111 10000 21011 53006 $
KJFK 221051Z 26010KT 10SM CLR M01/M11 A3030 RMK AO2 SLP258 T10061111 $
KJFK 220951Z 25010KT 10SM CLR M01/M11 A3029 RMK AO2 SLP256 T10111106 $
KJFK 220851Z 25012KT 10SM CLR M01/M10 A3028 RMK AO2 SLP254 T10111100 58020 $
KJFK 220751Z 25011KT 10SM CLR M01/M10 A3031 RMK AO2 SLP263 T10111100 $
KJFK 220651Z 26014KT 10SM CLR 00/M11 A3033 RMK AO2 SLP270 T00001111 $
KJFK 220551Z 25009KT 10SM CLR 00/M11 A3034 RMK AO2 SLP274 T00001111 10006 21006 58017 $
KJFK 220451Z 25010KT 10SM CLR 00/M12 A3036 RMK AO2 SLP280 T00001122 400221067 $
KJFK 220351Z 25015KT 10SM CLR 00/M12 A3038 RMK AO2 SLP287 T00001117 $
KJFK 220251Z 25013KT 10SM CLR 01/M12 A3039 RMK AO2 SLP291 T00061122 58009 $
KJFK 220151Z 25011KT 10SM CLR 01/M12 A3041 RMK AO2 SLP298 T00061122 $
KJFK 220051Z 25013KT 10SM CLR 01/M13 A3042 RMK AO2 SLP299 T00061133 $
KJFK 212351Z 24008KT 10SM CLR 01/M13 A3042 RMK AO2 SLP301 T00061128 10022 21011 55003 $
KJFK 212251Z 23008KT 10SM CLR M01/M14 A3042 RMK AO2 SLP300 T10061139 $
KJFK 212151Z 29005KT 10SM CLR 01/M18 A3042 RMK AO2 SLP302 T00111178 $
KJFK 212051Z 23008KT 10SM CLR 01/M16 A3043 RMK AO2 SLP304 T00111161 56019 $
KJFK 211951Z 27004KT 10SM CLR 01/M17 A3044 RMK AO2 SLP308 T00111172 $
KJFK 211851Z 34003KT 10SM CLR 01/M17 A3046 RMK AO2 SLP315 T00061172 $
KJFK 211751Z 34005KT 10SM CLR 00/M16 A3049 RMK AO2 SLP322 T00001161 10000 21061 58013 $
KJFK 211651Z COR 32006KT 10SM FEW055 M02/M15 A3051 RMK AO2 SLP331 T10171150 $
KJFK 211551Z 36011KT 10SM FEW050 M02/M15 A3052 RMK AO2 SLP334 T10171150 $
KJFK 211451Z 34014KT 10SM FEW050 M03/M14 A3052 RMK AO2 SLP335 T10331139 51015 $
KJFK 211351Z 36015KT 10SM FEW045 M04/M13 A3051 RMK AO2 SLP332 T10441133 $
KJFK 211251Z 34012KT 10SM FEW045 M06/M13 A3050 RMK AO2 SLP328 T10561133 $
KJFK 211151Z 36013KT 10SM FEW045 M06/M14 A3048 RMK AO2 SLP320 T10611139 11039 21067 53010 $
KJFK 211051Z 36016KT 10SM FEW045 FEW250 M06/M14 A3047 RMK AO2 SLP316 T10611139 $
KJFK 210951Z 01017KT 10SM FEW045 FEW250 M06/M14 A3045 RMK AO2 SLP312 T10611139 $
KJFK 210851Z COR 01015KT 10SM FEW045 FEW250 M06/M14 A3045 RMK AO2 SLP310 T10561144 58001 $
KJFK 210751Z 34018KT 10SM FEW045 M05/M15 A3045 RMK AO2 SLP312 T10501150 $
KJFK 210651Z 35016KT 10SM FEW045 M04/M15 A3047 RMK AO2 SLP316 T10441150 $
KJFK 210551Z 34013G21KT 10SM FEW220 M04/M14 A3045 RMK AO2 SLP311 T10391144 10011 21039 51001 $
KJFK 210451Z 34016KT 10SM SCT220 M03/M13 A3045 RMK AO2 SLP310 T10281133 400281028 $
KJFK 210351Z 35016KT 10SM BKN220 M02/M14 A3046 RMK AO2 SLP312 T10221139 $
KJFK 210251Z 36015KT 10SM BKN210 M01/M12 A3045 RMK AO2 PK WND 34026/0227 SLP310 T10111122 53009 $